LFLS/GNB METAR and TAF weather

Enter ICAO airport designator
Station Type Date Time Source
LFLS METAR 2020/06/05 13:30 UTC NOAA

LFLS 051330Z AUTO 16007KT 130V190 9999 BKN038 OVC045 15/09 Q1008 NOSIG


Station Type Date Time Source
LFLS Decoded METAR 2020/06/05 13:30 UTC NOAA

Grenoble / St. Geoirs, France (LFLS) 45-22N 005-20E 386M
Jun 05, 2020 - 09:30 AM EDT / 2020.06.05 1330 UTC
Wind: from the SSE (160 degrees) at 8 MPH (7 KT) (direction variable):0
Visibility: greater than 7 mile(s):0
Sky conditions: overcast
Temperature: 59 F (15 C)
Dew Point: 48 F (9 C)
Relative Humidity: 67%
Pressure (altimeter): 29.77 in. Hg (1008 hPa)
ob: LFLS 051330Z AUTO 16007KT 130V190 9999 BKN038 OVC045 15/09 Q1008 NOSIG
cycle: 13

Station Type Date Time Source
LFLS TAF 2020/06/05 09:25 UTC NOAA

TAF LFLS 050800Z 0509/0609 30005KT 9999 BKN050
TEMPO 0509/0516 -RA BKN030
BECMG 0510/0512 18005KT
BECMG 0518/0520 08004KT CAVOK
BECMG 0602/0604 BKN040
BECMG 0607/0609 20007KT

Example: see airport list